Time;durP1;ratioP1;P1;durP2;ratioP2;P2;SDS_P1;SDS_P2;PMS_P1;PMS_P2;Temp;Humidity;BMP_temperature;BMP_pressure;BME280_temperature;BME280_humidity;BME280_pressure;Samples;Min_cycle;Max_cycle;Signal;HPM_P1;HPM_P2
2021/01/31 00:02:25;;;;;;;2.97;1.20;;;19.50;42.70;;;;;;5131137;27;20035;-66
2021/01/31 00:04:52;;;;;;;4.00;2.17;;;19.60;42.20;;;;;;5130751;27;20019;-65
2021/01/31 00:07:19;;;;;;;3.00;1.95;;;19.60;42.40;;;;;;5131179;27;20020;-66
2021/01/31 00:09:49;;;;;;;3.83;1.60;;;19.50;42.50;;;;;;5129889;27;20102;-66
2021/01/31 00:12:16;;;;;;;6.95;1.42;;;19.50;42.80;;;;;;5131722;27;20084;-65
2021/01/31 00:14:43;;;;;;;1.40;1.30;;;19.60;42.60;;;;;;5132223;27;20019;-65
2021/01/31 00:17:09;;;;;;;4.28;1.63;;;20.50;41.80;;;;;;5132118;27;20038;-65
2021/01/31 00:19:36;;;;;;;2.55;1.60;;;22.60;38.10;;;;;;5130778;27;20153;-65
2021/01/31 00:22:03;;;;;;;2.70;1.80;;;24.90;33.80;;;;;;5130748;27;20038;-66
2021/01/31 00:24:30;;;;;;;2.53;1.70;;;26.30;30.60;;;;;;5128987;27;20031;-66
2021/01/31 00:26:57;;;;;;;4.60;1.30;;;27.10;29.10;;;;;;5131587;27;20027;-66
2021/01/31 00:29:25;;;;;;;2.22;1.40;;;26.80;28.00;;;;;;5132585;27;20483;-65
2021/01/31 00:31:53;;;;;;;3.60;1.88;;;25.10;29.80;;;;;;5114657;27;20371;-66
2021/01/31 00:34:21;;;;;;;1.83;1.67;;;23.80;32.10;;;;;;5130596;27;20489;-66
2021/01/31 00:36:48;;;;;;;4.07;1.52;;;22.60;34.40;;;;;;5132486;27;20429;-66
2021/01/31 00:39:16;;;;;;;4.45;2.30;;;21.60;36.70;;;;;;5132050;27;20041;-65
2021/01/31 00:41:45;;;;;;;3.13;1.65;;;21.00;38.10;;;;;;5131805;27;20388;-66
2021/01/31 00:44:12;;;;;;;7.22;3.65;;;20.70;38.80;;;;;;5128456;27;20111;-66
2021/01/31 00:46:41;;;;;;;4.88;2.10;;;20.20;39.90;;;;;;5128889;27;20511;-65
2021/01/31 00:49:10;;;;;;;3.33;2.08;;;19.90;40.80;;;;;;5128786;27;20029;-66
2021/01/31 00:51:37;;;;;;;2.13;1.85;;;19.60;41.30;;;;;;5112882;27;20026;-65
2021/01/31 00:54:04;;;;;;;3.63;2.00;;;19.40;41.80;;;;;;5127502;27;20031;-66
2021/01/31 00:56:30;;;;;;;2.70;1.67;;;19.30;42.40;;;;;;5129796;27;20024;-65
2021/01/31 00:58:57;;;;;;;6.30;1.98;;;19.10;42.60;;;;;;5130910;27;20034;-66
2021/01/31 01:01:23;;;;;;;6.97;4.03;;;18.80;43.50;;;;;;5131038;27;20519;-65
2021/01/31 01:03:50;;;;;;;5.13;2.95;;;18.50;43.90;;;;;;5128583;27;20023;-66
2021/01/31 01:06:16;;;;;;;8.60;4.68;;;18.30;44.50;;;;;;5129305;27;20027;-65
2021/01/31 01:08:42;;;;;;;;;;;18.10;45.30;;;;;;5129494;27;20051;-65
2021/01/31 01:11:09;;;;;;;13.30;6.88;;;17.90;46.10;;;;;;5112758;27;19918;-65
2021/01/31 01:13:35;;;;;;;;;;;17.80;46.50;;;;;;5129348;27;20473;-66
2021/01/31 01:16:02;;;;;;;49.88;24.85;;;17.60;46.70;;;;;;5129404;27;19939;-66
2021/01/31 01:18:28;;;;;;;40.53;21.52;;;17.50;47.30;;;;;;5129578;27;20016;-66
2021/01/31 01:20:55;;;;;;;;;;;17.40;48.20;;;;;;5129876;27;20055;-67
2021/01/31 01:23:21;;;;;;;48.92;23.00;;;17.20;48.50;;;;;;5129310;27;19915;-67
2021/01/31 01:25:47;;;;;;;;;;;17.10;49.10;;;;;;5133109;27;20044;-66
2021/01/31 01:28:15;;;;;;;73.75;41.60;;;17.00;49.90;;;;;;5130279;27;19914;-66
2021/01/31 01:30:42;;;;;;;59.00;37.45;;;16.90;50.30;;;;;;5131655;27;20023;-66
2021/01/31 01:33:08;;;;;;;45.45;27.17;;;16.80;50.80;;;;;;5127989;27;20031;-68
2021/01/31 01:35:34;;;;;;;;;;;16.70;51.00;;;;;;5129067;27;20053;-67
2021/01/31 01:38:01;;;;;;;28.30;14.18;;;16.50;51.70;;;;;;5129544;27;19914;-66
2021/01/31 01:40:37;;;;;;;26.15;12.48;;;16.40;52.20;;;;;;5128979;27;20031;-66
2021/01/31 01:43:05;;;;;;;25.92;11.15;;;16.40;52.80;;;;;;5129568;27;20035;-66
2021/01/31 01:45:33;;;;;;;21.05;9.57;;;16.30;53.60;;;;;;5129036;27;20146;-66
2021/01/31 01:48:16;;;;;;;21.10;9.27;;;16.10;54.20;;;;;;5129760;27;20023;-66
2021/01/31 01:50:51;;;;;;;21.15;8.75;;;16.10;55.00;;;;;;5129391;27;20105;-66
2021/01/31 01:53:20;;;;;;;19.70;7.28;;;15.90;55.50;;;;;;5130929;27;20042;-66
2021/01/31 01:56:09;;;;;;;22.55;7.25;;;15.80;55.80;;;;;;5128664;27;20084;-66
2021/01/31 01:58:35;;;;;;;17.52;6.05;;;15.80;56.90;;;;;;5125313;27;20027;-65
2021/01/31 02:01:02;;;;;;;;;;;15.70;57.10;;;;;;5129272;27;20102;-65
2021/01/31 02:03:37;;;;;;;10.63;4.65;;;15.60;57.90;;;;;;5128670;27;19919;-66
2021/01/31 02:06:25;;;;;;;15.13;5.13;;;15.50;57.90;;;;;;5127105;28;20046;-65
2021/01/31 02:08:55;;;;;;;7.40;4.13;;;15.40;58.30;;;;;;5125470;28;20031;-65
2021/01/31 02:11:22;;;;;;;12.65;4.80;;;15.20;58.80;;;;;;5110540;28;20056;-66
2021/01/31 02:14:01;;;;;;;16.85;3.97;;;15.20;58.70;;;;;;5128958;28;20023;-65
2021/01/31 02:16:53;;;;;;;13.48;4.40;;;15.20;59.20;;;;;;5130090;28;20475;-65
2021/01/31 02:19:26;;;;;;;13.18;4.40;;;15.10;59.40;;;;;;5105884;28;20039;-65
2021/01/31 02:22:10;;;;;;;22.00;5.10;;;15.00;59.70;;;;;;5129774;28;20042;-65
2021/01/31 02:24:58;;;;;;;16.23;4.78;;;15.00;60.00;;;;;;5128729;28;20065;-65
2021/01/31 02:27:54;;;;;;;21.27;5.13;;;14.90;60.50;;;;;;5132433;27;20073;-65
2021/01/31 02:30:55;;;;;;;15.02;5.85;;;14.80;61.30;;;;;;5134099;27;20394;-65
2021/01/31 02:33:37;;;;;;;22.63;7.55;;;14.70;62.30;;;;;;5133903;27;20106;-66
2021/01/31 02:36:38;;;;;;;34.30;14.98;;;14.60;62.70;;;;;;5131117;27;20026;-66
2021/01/31 02:39:14;;;;;;;49.80;20.40;;;14.60;63.10;;;;;;5134476;27;20111;-67
2021/01/31 02:41:48;;;;;;;44.10;19.55;;;14.50;63.40;;;;;;5131966;27;20034;-66
2021/01/31 02:44:19;;;;;;;56.10;20.83;;;14.50;63.50;;;;;;5131891;27;20025;-65
2021/01/31 02:46:56;;;;;;;44.13;19.02;;;14.50;64.00;;;;;;5113671;27;20107;-65
2021/01/31 02:49:29;;;;;;;43.25;17.77;;;14.40;64.40;;;;;;5116560;27;20384;-66
2021/01/31 02:52:02;;;;;;;43.22;19.52;;;14.30;65.10;;;;;;5134290;27;20043;-66
2021/01/31 02:54:45;;;;;;;54.60;24.35;;;14.30;65.90;;;;;;5114459;27;20035;-66
2021/01/31 02:57:49;;;;;;;67.40;27.70;;;14.30;66.20;;;;;;5114480;27;20514;-66
2021/01/31 03:00:17;;;;;;;59.50;27.88;;;14.30;66.60;;;;;;5106358;27;20042;-66
2021/01/31 03:03:27;;;;;;;72.47;27.92;;;14.20;67.30;;;;;;5132603;27;20043;-67
2021/01/31 03:05:56;;;;;;;70.90;27.50;;;14.20;67.80;;;;;;5131568;27;20024;-66
2021/01/31 03:08:29;;;;;;;62.53;26.27;;;14.10;68.00;;;;;;5133933;27;20038;-66
2021/01/31 03:11:07;;;;;;;59.35;24.60;;;14.00;68.40;;;;;;5133550;27;20064;-66
2021/01/31 03:14:27;;;;;;;51.78;22.52;;;14.00;68.60;;;;;;5133413;27;20023;-65
2021/01/31 03:17:08;;;;;;;57.80;23.83;;;14.00;68.80;;;;;;5115807;27;20035;-66
2021/01/31 03:19:45;;;;;;;58.17;23.63;;;13.90;69.10;;;;;;5131250;27;20487;-66
2021/01/31 03:22:13;;;;;;;;;;;13.90;69.50;;;;;;5131239;27;20038;-66
2021/01/31 03:24:57;;;;;;;53.08;19.73;;;13.80;70.30;;;;;;5114615;27;19994;-67
2021/01/31 03:27:30;;;;;;;52.95;18.80;;;13.80;70.40;;;;;;5131773;27;20145;-66
2021/01/31 03:29:57;;;;;;;46.90;18.77;;;13.80;70.80;;;;;;5114746;27;20027;-66
2021/01/31 03:32:24;;;;;;;;;;;13.80;70.80;;;;;;5133044;27;20511;-66
2021/01/31 03:35:17;;;;;;;47.03;18.25;;;13.70;71.30;;;;;;5129679;27;20002;-66
2021/01/31 03:37:55;;;;;;;48.83;17.33;;;13.60;71.50;;;;;;5129564;27;20403;-66
2021/01/31 03:40:26;;;;;;;54.50;17.98;;;13.60;70.70;;;;;;5131262;27;20043;-67
2021/01/31 03:42:52;;;;;;;46.38;16.08;;;13.60;70.80;;;;;;5133594;27;20042;-66
2021/01/31 03:45:26;;;;;;;52.17;17.30;;;13.60;71.00;;;;;;5131298;27;20038;-67
2021/01/31 03:48:04;;;;;;;54.53;17.10;;;13.50;71.10;;;;;;5130433;27;20027;-66
2021/01/31 03:50:32;;;;;;;41.65;17.30;;;13.50;71.40;;;;;;5132852;27;20031;-66
2021/01/31 03:52:59;;;;;;;41.55;17.48;;;13.50;71.00;;;;;;5130138;27;20529;-66
2021/01/31 03:55:26;;;;;;;41.55;16.63;;;13.40;70.60;;;;;;5131141;27;20019;-66
2021/01/31 03:57:58;;;;;;;43.85;16.23;;;13.40;70.40;;;;;;5132466;27;20024;-66
2021/01/31 04:00:31;;;;;;;53.05;18.65;;;13.40;70.50;;;;;;5130577;27;20111;-65
2021/01/31 04:03:01;;;;;;;46.22;18.40;;;13.30;70.70;;;;;;5111777;27;20383;-65
2021/01/31 04:05:31;;;;;;;45.42;16.83;;;13.30;71.00;;;;;;5116295;27;20053;-65
2021/01/31 04:08:02;;;;;;;36.67;16.25;;;13.20;71.70;;;;;;5131332;27;20034;-66
2021/01/31 04:10:29;;;;;;;49.95;18.38;;;13.20;71.70;;;;;;5112119;27;20027;-65
2021/01/31 04:12:57;;;;;;;;;;;13.20;71.80;;;;;;5133050;27;20027;-65
2021/01/31 04:15:58;;;;;;;45.80;19.55;;;13.20;71.80;;;;;;5128747;27;19926;-65
2021/01/31 04:18:25;;;;;;;47.95;18.83;;;13.10;71.80;;;;;;5129255;27;20072;-66
2021/01/31 04:20:52;;;;;;;50.40;18.55;;;13.10;72.10;;;;;;5112404;27;20106;-66
2021/01/31 04:23:20;;;;;;;55.20;18.67;;;13.00;72.60;;;;;;5112738;27;20116;-66
2021/01/31 04:25:47;;;;;;;50.72;18.42;;;13.00;73.20;;;;;;5131164;27;20031;-66
2021/01/31 04:28:23;;;;;;;43.53;18.35;;;12.90;73.70;;;;;;5130796;27;20020;-65
2021/01/31 04:30:57;;;;;;;48.38;17.65;;;12.90;73.70;;;;;;5130072;27;20040;-65
2021/01/31 04:33:25;;;;;;;51.13;17.35;;;12.90;73.70;;;;;;5111194;27;20494;-65
2021/01/31 04:35:52;;;;;;;53.75;16.77;;;12.90;74.00;;;;;;5130290;27;20023;-65
2021/01/31 04:38:19;;;;;;;57.97;18.83;;;12.90;74.80;;;;;;5132583;27;20033;-66
2021/01/31 04:40:46;;;;;;;48.60;18.20;;;12.80;75.40;;;;;;5131248;27;20039;-65
2021/01/31 04:43:14;;;;;;;;;;;12.80;75.40;;;;;;5130609;27;20066;-66
2021/01/31 04:45:41;;;;;;;54.47;19.02;;;12.80;75.40;;;;;;5130200;27;19915;-65
2021/01/31 04:48:31;;;;;;;50.47;18.48;;;12.70;75.60;;;;;;5132032;27;20023;-66
2021/01/31 04:51:22;;;;;;;62.75;20.23;;;12.70;76.00;;;;;;5129451;27;20020;-65
2021/01/31 04:54:18;;;;;;;59.47;19.80;;;12.60;76.40;;;;;;5109605;27;20552;-66
2021/01/31 04:56:54;;;;;;;54.20;19.80;;;12.60;76.00;;;;;;5123038;27;20096;-65
2021/01/31 04:59:38;;;;;;;57.03;19.83;;;12.60;75.80;;;;;;5130465;27;20054;-68
2021/01/31 05:02:20;;;;;;;58.55;20.65;;;12.60;75.90;;;;;;5130010;27;20035;-67
2021/01/31 05:04:54;;;;;;;57.72;20.60;;;12.50;76.50;;;;;;5128974;27;20098;-67
2021/01/31 05:07:36;;;;;;;58.90;21.42;;;12.50;76.10;;;;;;5130960;27;20133;-68
2021/01/31 05:10:06;;;;;;;66.30;21.65;;;12.50;74.80;;;;;;5127846;27;20015;-68
2021/01/31 05:12:56;;;;;;;76.55;26.52;;;12.50;74.00;;;;;;5130114;27;20047;-66
2021/01/31 05:15:27;;;;;;;86.72;26.10;;;12.50;73.90;;;;;;5130729;27;20045;-67
2021/01/31 05:17:56;;;;;;;73.82;25.10;;;12.50;74.00;;;;;;5112056;27;20039;-67
2021/01/31 05:20:31;;;;;;;66.43;23.25;;;12.50;74.10;;;;;;5130895;27;20030;-66
2021/01/31 05:23:02;;;;;;;60.45;25.17;;;12.50;73.80;;;;;;5129330;27;20031;-66
2021/01/31 05:25:34;;;;;;;64.40;23.92;;;12.50;73.90;;;;;;5129386;27;20501;-65
2021/01/31 05:28:02;;;;;;;78.60;24.17;;;12.50;73.70;;;;;;5130809;27;20020;-67
2021/01/31 05:30:32;;;;;;;73.93;21.40;;;12.50;73.90;;;;;;5130966;27;20063;-67
2021/01/31 05:33:20;;;;;;;66.78;21.80;;;12.50;73.80;;;;;;5132030;27;20035;-65
2021/01/31 05:35:50;;;;;;;62.35;20.65;;;12.50;73.50;;;;;;5131362;27;20416;-65
2021/01/31 05:38:38;;;;;;;68.05;21.75;;;12.50;73.30;;;;;;5129264;27;20118;-66
2021/01/31 05:41:30;;;;;;;54.83;20.17;;;12.50;73.30;;;;;;5129562;27;20392;-65
2021/01/31 05:44:14;;;;;;;53.65;20.80;;;12.40;73.20;;;;;;5130299;27;20049;-66
2021/01/31 05:46:51;;;;;;;67.55;19.95;;;12.30;72.00;;;;;;5130787;27;20015;-65
2021/01/31 05:49:35;;;;;;;64.93;20.33;;;12.20;71.90;;;;;;5130948;27;20038;-68
2021/01/31 05:52:03;;;;;;;56.90;19.38;;;12.30;72.70;;;;;;5130011;27;20033;-66
2021/01/31 05:54:35;;;;;;;53.58;19.02;;;12.30;71.60;;;;;;5112892;27;20027;-65
2021/01/31 05:57:03;;;;;;;60.95;19.08;;;12.30;71.90;;;;;;5128491;27;20118;-66
2021/01/31 05:59:49;;;;;;;54.28;19.70;;;12.30;71.30;;;;;;5128560;27;20031;-65
2021/01/31 06:02:31;;;;;;;58.73;20.13;;;12.30;72.00;;;;;;5127569;27;20368;-65
2021/01/31 06:05:21;;;;;;;54.15;19.67;;;12.30;72.00;;;;;;5127231;28;20058;-65
2021/01/31 06:08:08;;;;;;;58.88;23.23;;;12.20;71.70;;;;;;5130542;28;20031;-64
2021/01/31 06:10:40;;;;;;;63.67;21.60;;;12.10;71.90;;;;;;5130395;28;20023;-66
2021/01/31 06:13:19;;;;;;;62.90;22.08;;;12.10;72.00;;;;;;5110531;28;20035;-65
2021/01/31 06:16:00;;;;;;;67.72;25.38;;;12.10;72.40;;;;;;5127856;28;20038;-65
2021/01/31 06:18:39;;;;;;;59.67;24.13;;;12.10;72.70;;;;;;5129792;28;20030;-65
2021/01/31 06:21:15;;;;;;;64.97;24.45;;;12.10;72.50;;;;;;5129342;28;20028;-65
2021/01/31 06:23:43;;;;;;;74.57;26.38;;;11.90;72.50;;;;;;5127101;28;20371;-67
2021/01/31 06:26:21;;;;;;;58.63;22.58;;;11.80;72.20;;;;;;5129486;28;20102;-66
2021/01/31 06:28:51;;;;;;;65.82;24.10;;;11.90;72.50;;;;;;5113473;28;20027;-65
2021/01/31 06:31:43;;;;;;;55.63;24.55;;;11.90;72.60;;;;;;5129372;28;20015;-65
2021/01/31 06:34:11;;;;;;;63.30;24.17;;;11.90;72.80;;;;;;5129396;28;20027;-66
2021/01/31 06:36:40;;;;;;;74.88;24.77;;;11.90;73.20;;;;;;5129339;28;20034;-65
2021/01/31 06:39:11;;;;;;;76.82;26.25;;;11.80;73.90;;;;;;5126703;28;20091;-64
2021/01/31 06:41:51;;;;;;;71.97;25.42;;;11.80;73.60;;;;;;5113052;28;20042;-65
2021/01/31 06:44:33;;;;;;;66.38;25.58;;;11.80;74.50;;;;;;5085902;28;20430;-65
2021/01/31 06:47:31;;;;;;;61.80;27.30;;;11.80;73.70;;;;;;5110528;28;20039;-65
2021/01/31 06:50:22;;;;;;;73.05;28.30;;;11.70;73.70;;;;;;5106139;28;20042;-65
2021/01/31 06:53:20;;;;;;;82.97;28.02;;;11.60;74.30;;;;;;5088136;28;20034;-65
2021/01/31 06:56:21;;;;;;;77.10;29.00;;;11.60;74.50;;;;;;5085689;28;20043;-66
2021/01/31 06:59:15;;;;;;;84.55;30.00;;;11.50;74.70;;;;;;5106388;28;20128;-66
2021/01/31 07:02:18;;;;;;;73.93;28.55;;;11.50;75.30;;;;;;5112466;28;20170;-65
2021/01/31 07:05:12;;;;;;;76.25;27.83;;;11.60;75.60;;;;;;5107315;28;20110;-66
2021/01/31 07:08:06;;;;;;;61.88;27.48;;;11.60;75.30;;;;;;5111201;28;20037;-65
2021/01/31 07:11:07;;;;;;;72.88;27.33;;;11.50;75.60;;;;;;5110972;28;20048;-65
2021/01/31 07:14:01;;;;;;;73.93;26.92;;;11.40;76.40;;;;;;5120281;27;20526;-65
2021/01/31 07:16:36;;;;;;;65.68;25.17;;;11.50;77.10;;;;;;5119047;27;20049;-65
2021/01/31 07:19:25;;;;;;;70.03;26.75;;;11.50;76.80;;;;;;5118792;27;20512;-64
2021/01/31 07:21:58;;;;;;;66.80;26.65;;;11.50;76.80;;;;;;5104828;27;20111;-65
2021/01/31 07:24:50;;;;;;;72.68;27.67;;;11.50;76.50;;;;;;5116768;27;20495;-66
2021/01/31 07:27:33;;;;;;;71.88;28.13;;;11.50;77.00;;;;;;5081232;27;20091;-65
2021/01/31 07:30:05;;;;;;;73.20;25.70;;;11.00;77.10;;;;;;5116139;27;20069;-65
2021/01/31 07:33:02;;;;;;;65.68;26.40;;;11.50;76.90;;;;;;5111291;27;20057;-64
2021/01/31 07:35:54;;;;;;;59.67;25.90;;;11.50;76.80;;;;;;5076946;27;20046;-65
2021/01/31 07:38:36;;;;;;;58.15;25.38;;;11.50;76.20;;;;;;5119543;27;20038;-64
2021/01/31 07:41:04;;;;;;;66.38;26.58;;;11.40;76.70;;;;;;5114845;27;20036;-64
2021/01/31 07:43:36;;;;;;;59.58;24.15;;;11.30;77.10;;;;;;5095782;28;20032;-65
2021/01/31 07:46:08;;;;;;;52.95;24.60;;;11.40;77.40;;;;;;5115446;27;20035;-64
2021/01/31 07:48:34;;;;;;;49.45;22.63;;;11.40;77.00;;;;;;5094011;28;20039;-65
2021/01/31 07:51:02;;;;;;;;;;;11.30;77.30;;;;;;5122968;27;20074;-65
2021/01/31 07:53:39;;;;;;;36.95;15.90;;;11.30;76.90;;;;;;5119290;27;19933;-66
2021/01/31 07:56:29;;;;;;;35.63;15.30;;;11.30;76.70;;;;;;5092465;27;20664;-65
2021/01/31 07:59:20;;;;;;;33.20;13.23;;;11.30;76.10;;;;;;5115009;27;20028;-64
2021/01/31 08:01:58;;;;;;;31.00;12.63;;;11.30;74.80;;;;;;5097624;27;20063;-65
2021/01/31 08:04:45;;;;;;;33.70;12.50;;;11.30;73.30;;;;;;5112684;27;20118;-65
2021/01/31 08:07:32;;;;;;;23.70;11.70;;;11.30;72.60;;;;;;5118630;27;20375;-64
2021/01/31 08:09:58;;;;;;;26.23;10.23;;;11.30;72.50;;;;;;5120703;27;20029;-64
2021/01/31 08:12:44;;;;;;;;;;;11.40;71.10;;;;;;5111231;27;20367;-65
2021/01/31 08:15:32;;;;;;;31.55;11.82;;;11.40;70.60;;;;;;5114871;27;19927;-65
2021/01/31 08:17:59;;;;;;;23.25;11.60;;;11.40;70.50;;;;;;5110747;27;20044;-65
2021/01/31 08:20:28;;;;;;;27.38;12.95;;;11.40;70.50;;;;;;5112689;27;20062;-65
2021/01/31 08:23:04;;;;;;;30.42;13.32;;;11.40;70.70;;;;;;5112745;27;20620;-65
2021/01/31 08:25:33;;;;;;;33.72;13.70;;;11.40;71.60;;;;;;5110938;27;20072;-64
2021/01/31 08:28:03;;;;;;;28.83;13.02;;;11.30;71.40;;;;;;5112384;27;20040;-65
2021/01/31 08:30:41;;;;;;;30.45;12.02;;;11.30;71.30;;;;;;5118878;27;20042;-65
2021/01/31 08:33:27;;;;;;;27.90;11.90;;;11.30;72.50;;;;;;5110573;27;20550;-65
2021/01/31 08:35:58;;;;;;;23.95;11.75;;;11.20;72.70;;;;;;5115153;27;20095;-65
2021/01/31 08:38:34;;;;;;;23.13;11.10;;;11.30;72.50;;;;;;5115609;27;20038;-66
2021/01/31 08:41:01;;;;;;;21.08;10.70;;;11.20;73.20;;;;;;5104766;27;20083;-66
2021/01/31 08:43:44;;;;;;;27.80;9.02;;;11.10;73.20;;;;;;5106905;28;20066;-66
2021/01/31 08:46:30;;;;;;;22.05;7.28;;;11.10;73.10;;;;;;5109125;28;20365;-64
2021/01/31 08:49:07;;;;;;;15.68;6.97;;;11.20;72.70;;;;;;5090961;28;20045;-66
2021/01/31 08:51:45;;;;;;;20.17;6.50;;;11.20;72.60;;;;;;5105553;28;20093;-65
2021/01/31 08:54:19;;;;;;;11.98;5.78;;;11.20;72.00;;;;;;5108064;28;20073;-66
2021/01/31 08:57:03;;;;;;;15.88;5.63;;;11.20;72.70;;;;;;5105927;28;20062;-65
2021/01/31 08:59:42;;;;;;;11.30;4.97;;;11.00;72.90;;;;;;5108500;28;20045;-65
2021/01/31 09:02:18;;;;;;;10.77;4.35;;;11.10;72.60;;;;;;5106151;28;20050;-66
2021/01/31 09:04:50;;;;;;;8.95;3.67;;;11.00;72.90;;;;;;5108637;28;20026;-65
2021/01/31 09:07:35;;;;;;;8.15;3.60;;;10.90;73.00;;;;;;5109486;28;20092;-66
2021/01/31 09:10:16;;;;;;;15.13;4.15;;;11.00;73.10;;;;;;5107502;28;20041;-67
2021/01/31 09:12:43;;;;;;;7.80;2.67;;;11.00;73.20;;;;;;5104996;28;20125;-66
2021/01/31 09:15:10;;;;;;;7.35;2.42;;;10.90;72.30;;;;;;5091765;28;20044;-66
2021/01/31 09:17:37;;;;;;;4.43;2.10;;;10.90;72.30;;;;;;5109884;28;20128;-65
2021/01/31 09:20:12;;;;;;;;;;;10.90;72.30;;;;;;5105201;28;20044;-66
2021/01/31 09:22:50;;;;;;;4.55;2.25;;;11.00;72.40;;;;;;5086940;28;19944;-65
2021/01/31 09:25:21;;;;;;;3.83;1.85;;;11.00;72.40;;;;;;5104772;28;20404;-65
2021/01/31 09:27:58;;;;;;;6.95;1.85;;;11.00;72.50;;;;;;5091424;28;20378;-64
2021/01/31 09:30:25;;;;;;;4.78;1.52;;;10.90;72.20;;;;;;5108196;28;20160;-66
2021/01/31 09:33:02;;;;;;;4.75;1.52;;;10.90;72.60;;;;;;5110143;28;20453;-65
2021/01/31 09:35:32;;;;;;;7.32;1.30;;;10.90;73.10;;;;;;5110008;28;20046;-65
2021/01/31 09:38:30;;;;;;;10.40;1.90;;;11.00;73.00;;;;;;5105700;28;20047;-64
2021/01/31 09:41:00;;;;;;;6.65;1.73;;;10.90;73.10;;;;;;5106774;28;20111;-65
2021/01/31 09:43:29;;;;;;;3.50;1.75;;;10.90;73.90;;;;;;5091035;28;20069;-65
2021/01/31 09:45:58;;;;;;;6.72;1.63;;;10.80;74.10;;;;;;5105471;28;20037;-64
2021/01/31 09:48:28;;;;;;;3.88;1.90;;;10.70;74.30;;;;;;5108335;28;20503;-66
2021/01/31 09:51:06;;;;;;;4.35;1.77;;;10.70;74.60;;;;;;5109948;28;20031;-65
2021/01/31 09:53:41;;;;;;;6.18;2.40;;;10.70;75.00;;;;;;5110074;28;20122;-65
2021/01/31 09:56:11;;;;;;;3.90;2.08;;;10.70;74.70;;;;;;5100806;28;20119;-65
2021/01/31 09:58:47;;;;;;;2.53;1.73;;;10.70;74.50;;;;;;5110325;28;20042;-66
2021/01/31 10:01:23;;;;;;;3.38;1.77;;;10.60;74.30;;;;;;5094936;28;20030;-64
2021/01/31 10:04:06;;;;;;;1.88;1.38;;;10.60;74.70;;;;;;5084615;28;20049;-65
2021/01/31 10:06:46;;;;;;;4.53;1.30;;;10.60;74.70;;;;;;5105311;28;20051;-65
2021/01/31 10:09:13;;;;;;;5.32;1.38;;;10.50;75.50;;;;;;5108502;28;20517;-65
2021/01/31 10:11:47;;;;;;;;;;;10.40;75.00;;;;;;5109399;28;20038;-65
2021/01/31 10:14:48;;;;;;;5.30;1.20;;;10.50;75.20;;;;;;5109552;28;19923;-65
2021/01/31 10:17:18;;;;;;;2.00;1.20;;;10.50;75.20;;;;;;5103687;28;20025;-65
2021/01/31 10:19:45;;;;;;;2.72;1.38;;;10.50;74.80;;;;;;5103633;28;20039;-65
2021/01/31 10:22:28;;;;;;;5.80;1.42;;;10.60;74.50;;;;;;5104139;28;20092;-66
2021/01/31 10:24:54;;;;;;;2.97;1.58;;;10.50;74.20;;;;;;5107481;28;20070;-65
2021/01/31 10:27:30;;;;;;;4.75;1.77;;;10.50;74.10;;;;;;5110169;28;20043;-66
2021/01/31 10:30:38;;;;;;;3.00;1.58;;;10.50;73.70;;;;;;5109426;28;20446;-64
2021/01/31 10:33:05;;;;;;;4.00;1.57;;;10.50;73.70;;;;;;5109600;28;20032;-65
2021/01/31 10:35:36;;;;;;;2.20;1.65;;;10.50;73.20;;;;;;5108912;28;20272;-65
2021/01/31 10:38:26;;;;;;;5.68;1.48;;;10.60;72.80;;;;;;5122766;28;20126;-66
2021/01/31 10:40:53;;;;;;;3.83;1.58;;;10.60;72.60;;;;;;5125487;28;20105;-66
2021/01/31 10:43:21;;;;;;;1.95;1.30;;;10.60;72.40;;;;;;5129446;28;20150;-65
2021/01/31 10:45:47;;;;;;;2.28;1.20;;;10.60;72.50;;;;;;5129227;27;20031;-67
2021/01/31 10:48:14;;;;;;;;;;;10.60;72.80;;;;;;5131870;27;20043;-66
2021/01/31 10:50:41;;;;;;;3.05;1.30;;;10.60;73.10;;;;;;5131357;27;20295;-65
2021/01/31 10:53:08;;;;;;;1.73;0.77;;;10.60;73.10;;;;;;5133644;27;20169;-65
2021/01/31 10:55:34;;;;;;;;;;;10.70;72.70;;;;;;5114327;27;20035;-65
2021/01/31 10:58:00;;;;;;;2.72;0.90;;;10.60;72.40;;;;;;5132921;27;19918;-66
2021/01/31 11:00:26;;;;;;;;;;;10.60;72.70;;;;;;5119681;27;20416;-65
2021/01/31 11:02:53;;;;;;;3.28;0.60;;;10.60;72.30;;;;;;5125855;27;19940;-66
2021/01/31 11:05:20;;;;;;;;;;;10.60;71.90;;;;;;5118074;27;20377;-66
2021/01/31 11:07:46;;;;;;;2.58;0.80;;;10.60;71.70;;;;;;5129728;27;19923;-65
2021/01/31 11:10:13;;;;;;;;;;;10.60;71.30;;;;;;5130967;27;20381;-66
2021/01/31 11:12:40;;;;;;;1.38;0.90;;;10.50;71.00;;;;;;5129787;27;19957;-65
2021/01/31 11:15:08;;;;;;;1.60;0.73;;;10.60;71.20;;;;;;5123272;27;20517;-66
2021/01/31 11:17:35;;;;;;;6.45;0.98;;;10.60;70.90;;;;;;5132311;27;20044;-65
2021/01/31 11:20:01;;;;;;;;;;;10.70;71.10;;;;;;5126765;27;20026;-66
2021/01/31 11:22:27;;;;;;;1.83;0.77;;;10.70;70.50;;;;;;5116918;27;20294;-65
2021/01/31 11:24:53;;;;;;;;;;;10.70;70.10;;;;;;5113091;27;20131;-65
2021/01/31 11:27:20;;;;;;;3.13;1.00;;;10.70;70.40;;;;;;5101922;28;19920;-65
2021/01/31 11:29:46;;;;;;;2.28;0.88;;;10.60;70.40;;;;;;5129764;27;20048;-66
2021/01/31 11:32:12;;;;;;;;;;;10.50;70.10;;;;;;5132521;27;20037;-65
2021/01/31 11:34:39;;;;;;;5.22;1.13;;;10.50;70.60;;;;;;5131831;27;19921;-66
2021/01/31 11:37:06;;;;;;;2.35;1.08;;;10.50;70.60;;;;;;5103571;28;20510;-65
2021/01/31 11:39:32;;;;;;;2.00;1.10;;;10.50;70.10;;;;;;5115721;27;20076;-65
2021/01/31 11:41:59;;;;;;;;;;;10.50;70.20;;;;;;5110248;27;20066;-66
2021/01/31 11:44:26;;;;;;;1.70;0.90;;;10.50;70.20;;;;;;5106798;27;19974;-65
2021/01/31 11:46:52;;;;;;;4.25;1.10;;;10.50;70.10;;;;;;5112203;27;20065;-65
2021/01/31 11:49:19;;;;;;;;;;;10.50;70.10;;;;;;5114341;27;20044;-66
2021/01/31 11:51:45;;;;;;;2.70;0.80;;;10.40;69.90;;;;;;5109086;27;19942;-65
2021/01/31 11:54:12;;;;;;;4.30;0.75;;;10.40;70.10;;;;;;5100485;27;20083;-67
2021/01/31 11:56:38;;;;;;;;;;;10.40;70.40;;;;;;5111682;27;20051;-65
2021/01/31 11:59:04;;;;;;;1.17;0.77;;;10.40;70.30;;;;;;5095849;28;19974;-66
2021/01/31 12:01:31;;;;;;;;;;;10.50;70.10;;;;;;5109736;27;20060;-65
2021/01/31 12:03:57;;;;;;;0.95;0.70;;;10.50;70.20;;;;;;5108137;27;19984;-65
2021/01/31 12:06:23;;;;;;;;;;;10.50;70.50;;;;;;5115670;27;20035;-64
2021/01/31 12:08:50;;;;;;;4.10;0.95;;;10.40;70.70;;;;;;5094350;27;19927;-65
2021/01/31 12:11:16;;;;;;;2.60;0.90;;;10.40;71.00;;;;;;5119187;27;20165;-65
2021/01/31 12:13:43;;;;;;;;;;;10.50;71.40;;;;;;5093572;28;20043;-66
2021/01/31 12:16:09;;;;;;;1.35;0.70;;;10.50;71.10;;;;;;5092912;28;19924;-65
2021/01/31 12:18:36;;;;;;;0.80;0.60;;;10.40;71.70;;;;;;5102411;27;20033;-66
2021/01/31 12:21:02;;;;;;;;;;;10.50;71.80;;;;;;5117280;27;20123;-65
2021/01/31 12:23:28;;;;;;;1.15;0.80;;;10.50;72.00;;;;;;5091586;28;19944;-66
2021/01/31 12:25:54;;;;;;;;;;;10.40;72.50;;;;;;5115241;27;20060;-66
2021/01/31 12:28:21;;;;;;;1.95;1.15;;;10.30;72.50;;;;;;5111218;27;20025;-66
2021/01/31 12:30:47;;;;;;;;;;;10.30;72.40;;;;;;5093215;28;20045;-66
2021/01/31 12:33:14;;;;;;;2.97;2.00;;;10.10;72.50;;;;;;5112933;27;19928;-66
2021/01/31 12:35:40;;;;;;;5.03;1.88;;;10.10;72.70;;;;;;5107629;27;20045;-65
2021/01/31 12:38:06;;;;;;;;;;;10.10;73.10;;;;;;5116584;27;20397;-66
2021/01/31 12:40:33;;;;;;;5.55;1.95;;;10.00;73.60;;;;;;5122432;27;20392;-65
2021/01/31 12:43:00;;;;;;;6.38;1.60;;;10.00;73.80;;;;;;5110191;27;20154;-66
2021/01/31 12:45:27;;;;;;;5.30;1.65;;;10.00;74.00;;;;;;5093967;27;20050;-65
2021/01/31 12:47:54;;;;;;;4.40;1.20;;;10.10;74.30;;;;;;5113762;27;20100;-66
2021/01/31 12:50:21;;;;;;;;;;;10.10;74.40;;;;;;5107864;27;20783;-66
2021/01/31 12:52:48;;;;;;;5.10;1.13;;;10.00;73.80;;;;;;5121827;27;19944;-65
2021/01/31 12:55:14;;;;;;;;;;;10.10;74.50;;;;;;5091199;27;20047;-64
2021/01/31 12:57:41;;;;;;;4.70;1.10;;;10.10;74.30;;;;;;5118454;27;19927;-65
2021/01/31 13:00:11;;;;;;;3.83;1.10;;;10.10;74.20;;;;;;5111239;27;20158;-65
2021/01/31 13:02:38;;;;;;;3.13;1.10;;;10.00;74.00;;;;;;5111460;27;20089;-66
2021/01/31 13:05:06;;;;;;;2.15;1.15;;;10.00;74.00;;;;;;5110101;27;20060;-65
2021/01/31 13:07:33;;;;;;;3.65;1.02;;;10.00;74.10;;;;;;5116035;27;20047;-65
2021/01/31 13:10:00;;;;;;;5.63;1.13;;;10.00;74.20;;;;;;5116689;27;20033;-65
2021/01/31 13:12:26;;;;;;;;;;;10.00;74.30;;;;;;5111905;27;20114;-65
2021/01/31 13:14:52;;;;;;;1.95;1.10;;;10.00;74.40;;;;;;5111410;27;19920;-65
2021/01/31 13:17:18;;;;;;;;;;;10.00;74.50;;;;;;5110159;27;20028;-65
2021/01/31 13:19:45;;;;;;;1.75;0.90;;;10.00;74.40;;;;;;5118470;27;20011;-65
2021/01/31 13:22:11;;;;;;;;;;;10.00;75.60;;;;;;5109860;27;20407;-65